Time;durP1;ratioP1;P1;durP2;ratioP2;P2;SDS_P1;SDS_P2;PMS_P1;PMS_P2;Temp;Humidity;BMP_temperature;BMP_pressure;BME280_temperature;BME280_humidity;BME280_pressure;Samples;Min_cycle;Max_cycle;Signal;HPM_P1;HPM_P2
2024/01/01 00:01:27;;;;;;;15.75;2.83;;;8.50;99.90;;;;;;6372377;27;20047;-87
2024/01/01 00:04:30;;;;;;;13.05;2.80;;;8.50;99.90;;;;;;6360006;27;20112;-86
2024/01/01 00:07:32;;;;;;;11.98;3.40;;;8.50;99.90;;;;;;6345985;28;20528;-85
2024/01/01 00:10:33;;;;;;;16.08;4.03;;;8.50;99.90;;;;;;6372124;27;20065;-87
2024/01/01 00:13:35;;;;;;;15.88;4.95;;;8.60;99.90;;;;;;6350849;27;20047;-85
2024/01/01 00:16:37;;;;;;;14.40;5.40;;;8.60;99.90;;;;;;6355015;27;20412;-86
2024/01/01 00:19:39;;;;;;;17.80;5.10;;;8.60;99.90;;;;;;6332841;27;20410;-88
2024/01/01 00:22:42;;;;;;;19.23;5.13;;;8.60;99.90;;;;;;6355451;27;20062;-87
2024/01/01 00:25:43;;;;;;;16.85;3.97;;;8.60;99.90;;;;;;6373446;27;20490;-86
2024/01/01 00:28:45;;;;;;;14.00;4.53;;;8.70;99.90;;;;;;6337847;27;20048;-84
2024/01/01 00:31:47;;;;;;;18.13;3.78;;;8.70;99.90;;;;;;6362606;28;20650;-86
2024/01/01 00:34:49;;;;;;;11.27;3.53;;;8.70;99.90;;;;;;6329340;28;20127;-88
2024/01/01 00:37:51;;;;;;;10.75;3.88;;;8.70;99.90;;;;;;6353394;28;20055;-85
2024/01/01 00:40:52;;;;;;;11.63;2.72;;;8.70;99.90;;;;;;6347032;28;20056;-87
2024/01/01 00:43:54;;;;;;;13.98;3.13;;;8.70;99.90;;;;;;6355196;27;20511;-86
2024/01/01 00:46:57;;;;;;;14.85;3.33;;;8.70;99.90;;;;;;6345758;28;20055;-87
2024/01/01 00:50:00;;;;;;;9.88;2.45;;;8.60;99.90;;;;;;6347113;28;20056;-86
2024/01/01 00:53:02;;;;;;;10.73;2.65;;;8.40;99.90;;;;;;6376261;27;20054;-85
2024/01/01 00:56:03;;;;;;;11.10;2.90;;;8.40;99.90;;;;;;6333969;28;20047;-87
2024/01/01 00:59:05;;;;;;;11.32;2.80;;;8.30;99.90;;;;;;6342640;28;20192;-88
2024/01/01 01:02:07;;;;;;;12.70;3.20;;;8.30;99.90;;;;;;6350399;27;20413;-88
2024/01/01 01:05:09;;;;;;;15.40;3.03;;;8.30;99.90;;;;;;6350912;27;20475;-86
2024/01/01 01:08:11;;;;;;;10.50;2.50;;;8.20;99.90;;;;;;6359026;27;20509;-86
2024/01/01 01:11:14;;;;;;;10.88;3.05;;;8.10;99.90;;;;;;6377045;27;20051;-86
2024/01/01 01:14:16;;;;;;;12.73;3.08;;;8.10;99.90;;;;;;6375230;27;20051;-86
2024/01/01 01:17:17;;;;;;;12.05;2.83;;;8.10;99.90;;;;;;6358154;27;20051;-86
2024/01/01 01:20:19;;;;;;;12.40;2.75;;;8.00;99.90;;;;;;6376924;27;20083;-88
2024/01/01 01:23:21;;;;;;;11.48;2.30;;;8.00;99.90;;;;;;6382996;27;20051;-86
2024/01/01 01:26:22;;;;;;;12.40;2.45;;;8.00;99.90;;;;;;6376527;27;20401;-86
2024/01/01 01:29:24;;;;;;;10.50;2.38;;;8.00;99.90;;;;;;6353125;27;20065;-87
2024/01/01 01:32:26;;;;;;;14.05;2.25;;;8.00;99.90;;;;;;6361616;27;20039;-87
2024/01/01 01:35:27;;;;;;;11.32;2.00;;;8.00;99.90;;;;;;6359479;27;20051;-84
2024/01/01 01:38:30;;;;;;;12.25;2.15;;;8.00;99.90;;;;;;6377047;27;20054;-87
2024/01/01 01:41:31;;;;;;;9.48;1.85;;;7.90;99.90;;;;;;6359981;27;20055;-86
2024/01/01 01:44:33;;;;;;;13.65;2.00;;;7.90;99.90;;;;;;6342492;22;20052;-89
2024/01/01 01:47:35;;;;;;;10.43;2.05;;;8.00;99.90;;;;;;6288011;28;20049;-86
2024/01/01 01:50:37;;;;;;;13.55;2.00;;;8.10;99.90;;;;;;6278791;28;20517;-86
2024/01/01 01:53:39;;;;;;;9.40;1.88;;;8.20;99.90;;;;;;6295473;28;20065;-88
2024/01/01 01:56:42;;;;;;;9.20;1.63;;;8.20;99.90;;;;;;6298236;28;20040;-89
2024/01/01 01:59:44;;;;;;;14.20;2.03;;;8.20;99.90;;;;;;6284883;28;20075;-85
2024/01/01 02:02:45;;;;;;;10.63;1.92;;;8.20;99.90;;;;;;6278886;28;20607;-88
2024/01/01 02:05:47;;;;;;;8.90;2.03;;;8.20;99.90;;;;;;6278996;28;20064;-86
2024/01/01 02:08:49;;;;;;;11.65;1.90;;;8.20;99.90;;;;;;6269022;28;20064;-87
2024/01/01 02:11:50;;;;;;;11.27;2.08;;;8.20;99.90;;;;;;6279556;28;20044;-88
2024/01/01 02:14:52;;;;;;;8.75;1.80;;;8.20;99.90;;;;;;6274922;28;20063;-86
2024/01/01 02:17:54;;;;;;;12.80;2.35;;;8.10;99.90;;;;;;6266373;28;20052;-86
2024/01/01 02:20:56;;;;;;;13.60;2.92;;;8.00;99.90;;;;;;6278312;28;20110;-86
2024/01/01 02:23:58;;;;;;;16.17;2.20;;;7.90;99.90;;;;;;6296519;28;20055;-87
2024/01/01 02:26:59;;;;;;;12.95;2.13;;;7.90;99.90;;;;;;6278619;28;20518;-85
2024/01/01 02:30:01;;;;;;;12.80;2.25;;;7.90;99.90;;;;;;6269627;28;20052;-85
2024/01/01 02:33:03;;;;;;;8.73;2.05;;;7.90;99.90;;;;;;6278166;28;20051;-86
2024/01/01 02:36:04;;;;;;;8.38;1.60;;;8.00;99.90;;;;;;6286013;28;20049;-88
2024/01/01 02:39:06;;;;;;;10.90;1.77;;;8.00;99.90;;;;;;6279270;28;20055;-88
2024/01/01 02:42:08;;;;;;;8.93;2.00;;;8.10;99.90;;;;;;6278669;28;20053;-86
2024/01/01 02:45:09;;;;;;;16.65;2.92;;;8.20;99.90;;;;;;6273858;28;20052;-86
2024/01/01 02:48:11;;;;;;;9.25;1.95;;;8.20;99.90;;;;;;6271682;28;20117;-86
2024/01/01 02:51:13;;;;;;;12.77;2.03;;;8.20;99.90;;;;;;6277900;28;20052;-87
2024/01/01 02:54:15;;;;;;;8.27;1.90;;;8.20;99.90;;;;;;6279359;28;20045;-87
2024/01/01 02:57:17;;;;;;;13.88;2.05;;;8.30;99.90;;;;;;6279673;28;20056;-88
2024/01/01 03:00:18;;;;;;;12.00;2.35;;;8.30;99.90;;;;;;6271004;28;20060;-87
2024/01/01 03:03:20;;;;;;;11.07;2.47;;;8.30;99.90;;;;;;6296897;28;20048;-87
2024/01/01 03:06:22;;;;;;;9.25;1.83;;;8.40;99.90;;;;;;6283788;28;20052;-87
2024/01/01 03:09:23;;;;;;;10.20;2.00;;;8.40;99.90;;;;;;6284666;28;20056;-87
2024/01/01 03:12:25;;;;;;;11.98;1.92;;;8.40;99.90;;;;;;6279360;28;20055;-87
2024/01/01 03:15:27;;;;;;;9.93;2.00;;;8.40;99.90;;;;;;6295549;28;20048;-87
2024/01/01 03:18:28;;;;;;;9.50;2.05;;;8.40;99.90;;;;;;6265541;28;20131;-87
2024/01/01 03:21:30;;;;;;;13.30;1.80;;;8.40;99.90;;;;;;6277606;28;20049;-89
2024/01/01 03:24:32;;;;;;;12.57;2.10;;;8.40;99.90;;;;;;6296017;28;20079;-86
2024/01/01 03:27:33;;;;;;;10.48;1.90;;;8.40;99.90;;;;;;6277693;28;20056;-87
2024/01/01 03:30:35;;;;;;;8.20;1.63;;;8.50;99.90;;;;;;6270684;28;20423;-88
2024/01/01 03:33:37;;;;;;;8.80;1.83;;;8.40;99.80;;;;;;6277218;28;20084;-87
2024/01/01 03:36:39;;;;;;;8.63;1.60;;;8.50;99.70;;;;;;6288173;28;20057;-86
2024/01/01 03:39:40;;;;;;;9.93;1.90;;;8.40;99.70;;;;;;6277309;28;20510;-87
2024/01/01 03:42:42;;;;;;;10.18;1.75;;;8.50;99.90;;;;;;6295594;28;20505;-89
2024/01/01 03:45:44;;;;;;;14.90;2.25;;;8.50;99.10;;;;;;6305273;28;20059;-87
2024/01/01 03:48:46;;;;;;;11.60;2.22;;;8.50;99.10;;;;;;6318895;28;20070;-88
2024/01/01 03:51:47;;;;;;;9.30;1.73;;;8.50;99.30;;;;;;6312168;28;20063;-88
2024/01/01 03:54:49;;;;;;;9.18;1.67;;;8.50;98.90;;;;;;6311069;28;20063;-87
2024/01/01 03:57:51;;;;;;;10.57;1.83;;;8.50;99.90;;;;;;6308425;28;20052;-86
2024/01/01 04:00:52;;;;;;;11.77;1.80;;;8.40;99.20;;;;;;6292290;28;20056;-86
2024/01/01 04:04:00;;;;;;;11.82;2.08;;;8.40;99.90;;;;;;6294158;28;20052;-85
2024/01/01 04:07:02;;;;;;;12.95;2.08;;;8.30;99.90;;;;;;6308762;28;20538;-85
2024/01/01 04:10:05;;;;;;;10.90;2.05;;;8.40;99.90;;;;;;6313968;28;20048;-87
2024/01/01 04:13:06;;;;;;;11.40;1.85;;;8.40;99.90;;;;;;6312827;28;20048;-88
2024/01/01 04:16:08;;;;;;;10.90;2.20;;;8.30;99.90;;;;;;6295179;28;20064;-86
2024/01/01 04:19:10;;;;;;;14.02;1.95;;;8.30;99.90;;;;;;6268958;28;20094;-86
2024/01/01 04:22:12;;;;;;;13.27;2.30;;;8.40;99.90;;;;;;6318544;28;20078;-86
2024/01/01 04:25:14;;;;;;;13.35;2.30;;;8.30;99.90;;;;;;6310852;28;20048;-85
2024/01/01 04:28:16;;;;;;;12.25;2.13;;;8.30;99.90;;;;;;6301051;28;20126;-86
2024/01/01 04:31:17;;;;;;;12.13;2.00;;;8.30;99.90;;;;;;6331695;28;20171;-87
2024/01/01 04:34:19;;;;;;;13.52;2.25;;;8.30;99.90;;;;;;6298275;28;20415;-85
2024/01/01 04:37:21;;;;;;;10.40;1.92;;;8.30;99.90;;;;;;6331231;28;20060;-85
2024/01/01 04:40:22;;;;;;;9.23;1.60;;;8.30;99.90;;;;;;6315366;28;20055;-87
2024/01/01 04:43:25;;;;;;;13.68;2.25;;;8.30;99.90;;;;;;6313674;28;20052;-88
2024/01/01 04:46:27;;;;;;;9.50;2.25;;;8.30;99.90;;;;;;6321839;28;20062;-87
2024/01/01 04:49:28;;;;;;;8.20;2.08;;;8.20;99.90;;;;;;6315877;28;20055;-86
2024/01/01 04:52:30;;;;;;;12.02;2.38;;;8.20;99.90;;;;;;6300076;28;20055;-86
2024/01/01 04:55:32;;;;;;;11.55;2.17;;;8.10;99.90;;;;;;6314988;28;20422;-87
2024/01/01 04:58:34;;;;;;;10.65;2.00;;;8.00;99.90;;;;;;6299033;28;20493;-89
2024/01/01 05:01:35;;;;;;;13.95;2.40;;;8.00;99.90;;;;;;6301190;28;20059;-86
2024/01/01 05:04:37;;;;;;;11.75;2.15;;;7.90;99.90;;;;;;6302840;28;20495;-86
2024/01/01 05:07:39;;;;;;;13.32;2.60;;;7.90;99.90;;;;;;6306513;28;20059;-86
2024/01/01 05:10:40;;;;;;;19.30;2.40;;;7.90;99.90;;;;;;6284531;28;20080;-85
2024/01/01 05:13:42;;;;;;;13.60;2.58;;;7.90;99.90;;;;;;6314255;28;20487;-85
2024/01/01 05:16:44;;;;;;;12.63;2.25;;;7.90;99.90;;;;;;6318341;28;20148;-84
2024/01/01 05:19:46;;;;;;;14.38;2.30;;;7.70;99.90;;;;;;6300095;28;20050;-85
2024/01/01 05:22:48;;;;;;;13.57;2.58;;;7.70;99.90;;;;;;6299582;28;20058;-85
2024/01/01 05:25:49;;;;;;;12.77;2.25;;;7.60;99.90;;;;;;6300575;28;20059;-85
2024/01/01 05:28:51;;;;;;;13.15;2.03;;;7.60;99.90;;;;;;6312823;28;20106;-85
2024/01/01 05:31:53;;;;;;;15.93;2.58;;;7.60;99.90;;;;;;6299960;28;20560;-84
2024/01/01 05:34:54;;;;;;;12.68;2.20;;;7.60;99.90;;;;;;6301637;28;20067;-84
2024/01/01 05:37:56;;;;;;;14.30;2.25;;;7.70;99.90;;;;;;6304159;28;20169;-85
2024/01/01 05:40:58;;;;;;;12.20;2.40;;;7.60;99.90;;;;;;6304172;28;20058;-85
2024/01/01 05:44:01;;;;;;;18.63;2.67;;;7.50;99.90;;;;;;6300382;28;20288;-84
2024/01/01 05:47:03;;;;;;;12.13;2.08;;;7.40;99.90;;;;;;6315999;28;20060;-86
2024/01/01 05:50:05;;;;;;;11.88;2.35;;;7.40;99.90;;;;;;6303971;28;20047;-86
2024/01/01 05:53:07;;;;;;;13.85;2.47;;;7.30;99.90;;;;;;6280430;28;20053;-85
2024/01/01 05:56:09;;;;;;;17.98;3.10;;;7.30;99.90;;;;;;6303713;28;20063;-85
2024/01/01 05:59:11;;;;;;;17.00;2.47;;;7.30;99.90;;;;;;6311377;28;20043;-84
2024/01/01 06:02:13;;;;;;;15.85;2.08;;;7.20;99.90;;;;;;6322525;28;20048;-84
2024/01/01 06:05:15;;;;;;;18.10;2.65;;;7.20;99.90;;;;;;6304674;28;20403;-84
2024/01/01 06:08:17;;;;;;;15.38;2.67;;;7.20;99.90;;;;;;6321659;28;20134;-85
2024/01/01 06:11:19;;;;;;;17.13;2.50;;;7.30;99.90;;;;;;6304045;28;20131;-86
2024/01/01 06:14:20;;;;;;;13.30;2.10;;;7.20;99.90;;;;;;6288357;28;20059;-86
2024/01/01 06:17:22;;;;;;;23.88;2.58;;;7.20;99.90;;;;;;6321938;28;20463;-87
2024/01/01 06:20:24;;;;;;;15.70;2.30;;;7.20;99.90;;;;;;6299284;28;20045;-87
2024/01/01 06:23:25;;;;;;;19.98;2.75;;;7.20;99.90;;;;;;6281324;28;20056;-85
2024/01/01 06:26:27;;;;;;;12.88;2.33;;;7.10;99.90;;;;;;6303334;28;20106;-85
2024/01/01 06:29:29;;;;;;;18.80;2.80;;;7.10;99.90;;;;;;6323062;28;20410;-86
2024/01/01 06:32:31;;;;;;;18.40;2.42;;;7.10;99.90;;;;;;6320034;28;20423;-86
2024/01/01 06:35:33;;;;;;;15.43;2.78;;;7.10;99.90;;;;;;6321241;28;20066;-86
2024/01/01 06:38:36;;;;;;;20.77;2.80;;;7.10;99.90;;;;;;6303226;28;20059;-87
2024/01/01 06:41:38;;;;;;;17.65;2.88;;;7.10;99.90;;;;;;6302453;28;20952;-87
2024/01/01 06:44:39;;;;;;;16.95;2.95;;;7.10;99.90;;;;;;6307368;28;20059;-87
2024/01/01 06:47:41;;;;;;;17.55;2.78;;;7.10;99.90;;;;;;6311867;28;20273;-86
2024/01/01 06:50:43;;;;;;;14.50;2.78;;;7.10;99.90;;;;;;6295243;28;20125;-86
2024/01/01 06:53:44;;;;;;;17.92;2.88;;;7.10;99.90;;;;;;6295029;28;20048;-85
2024/01/01 06:56:46;;;;;;;19.13;2.75;;;7.10;99.90;;;;;;6311610;28;20051;-85
2024/01/01 06:59:48;;;;;;;17.13;2.65;;;7.20;99.90;;;;;;6301962;28;20054;-88
2024/01/01 07:02:50;;;;;;;23.10;3.05;;;7.10;99.90;;;;;;6325993;28;20137;-85
2024/01/01 07:05:51;;;;;;;19.40;2.88;;;7.10;99.90;;;;;;6291004;28;20060;-84
2024/01/01 07:08:53;;;;;;;15.73;2.90;;;7.10;99.90;;;;;;6301518;28;20185;-86
2024/01/01 07:11:55;;;;;;;17.65;2.70;;;7.10;99.90;;;;;;6319868;28;20091;-86
2024/01/01 07:14:56;;;;;;;17.83;3.30;;;7.10;99.90;;;;;;6298857;28;20056;-86
2024/01/01 07:17:59;;;;;;;20.63;3.47;;;7.10;99.90;;;;;;6319877;28;20418;-86
2024/01/01 07:21:02;;;;;;;13.95;2.30;;;7.10;99.90;;;;;;6301967;28;20384;-85
2024/01/01 07:24:04;;;;;;;24.35;3.13;;;7.10;99.90;;;;;;6301941;28;20063;-86
2024/01/01 07:27:06;;;;;;;20.40;3.13;;;7.10;99.90;;;;;;6302180;28;20078;-86
2024/01/01 07:30:08;;;;;;;18.65;2.72;;;7.10;99.90;;;;;;6301142;28;20052;-84
2024/01/01 07:33:09;;;;;;;18.40;3.42;;;7.10;99.90;;;;;;6301626;28;20824;-86
2024/01/01 07:36:11;;;;;;;24.02;3.20;;;7.10;99.90;;;;;;6319315;28;20197;-85
2024/01/01 07:39:13;;;;;;;22.95;2.67;;;7.10;99.90;;;;;;6310827;28;20059;-85
2024/01/01 07:42:15;;;;;;;19.77;3.47;;;7.10;99.90;;;;;;6315005;28;20461;-86
2024/01/01 07:45:17;;;;;;;23.35;3.30;;;7.10;99.90;;;;;;6292931;28;20056;-86
2024/01/01 07:48:19;;;;;;;22.35;3.08;;;7.00;99.90;;;;;;6318586;28;20052;-85
2024/01/01 07:51:21;;;;;;;19.42;3.33;;;7.10;99.90;;;;;;6328533;28;20044;-85
2024/01/01 07:54:22;;;;;;;25.92;3.40;;;7.00;99.90;;;;;;6319551;28;20388;-85
2024/01/01 07:57:24;;;;;;;15.93;3.15;;;7.00;99.90;;;;;;6318675;28;20079;-84
2024/01/01 08:00:26;;;;;;;26.13;2.75;;;7.10;99.90;;;;;;6317072;28;20059;-86
2024/01/01 08:03:27;;;;;;;23.15;3.20;;;7.00;99.90;;;;;;6282267;28;20059;-85
2024/01/01 08:06:29;;;;;;;24.35;3.72;;;7.00;99.90;;;;;;6301566;28;20055;-85
2024/01/01 08:09:31;;;;;;;27.95;3.53;;;7.00;99.90;;;;;;6321375;28;20502;-85
2024/01/01 08:12:32;;;;;;;24.08;3.55;;;7.00;99.90;;;;;;6307180;28;20055;-86
2024/01/01 08:15:34;;;;;;;20.42;3.28;;;7.00;99.90;;;;;;6319551;28;20059;-85
2024/01/01 08:18:36;;;;;;;16.83;3.40;;;7.00;99.90;;;;;;6301025;28;20044;-84
2024/01/01 08:21:37;;;;;;;17.65;2.75;;;7.00;99.90;;;;;;6318916;28;20142;-84
2024/01/01 08:24:39;;;;;;;26.30;3.72;;;7.00;99.90;;;;;;6293575;28;20048;-85
2024/01/01 08:27:41;;;;;;;22.45;3.15;;;7.00;99.90;;;;;;6318858;28;20479;-85
2024/01/01 08:30:43;;;;;;;27.02;3.53;;;7.00;99.90;;;;;;6316204;28;20067;-85
2024/01/01 08:33:45;;;;;;;19.02;3.53;;;7.10;99.90;;;;;;6299258;28;20423;-86
2024/01/01 08:36:47;;;;;;;19.27;3.17;;;7.10;99.90;;;;;;6276678;28;20500;-85
2024/01/01 08:39:49;;;;;;;19.80;2.95;;;7.10;99.90;;;;;;6318135;28;20514;-85
2024/01/01 08:42:51;;;;;;;21.27;3.15;;;7.10;99.90;;;;;;6317864;28;20347;-86
2024/01/01 08:45:54;;;;;;;23.25;3.50;;;7.20;99.90;;;;;;6305879;28;20052;-85
2024/01/01 08:48:55;;;;;;;24.08;2.95;;;7.20;99.90;;;;;;6318500;28;20056;-84
2024/01/01 08:51:57;;;;;;;19.42;2.90;;;7.20;99.90;;;;;;6318331;28;20131;-85
2024/01/01 08:54:59;;;;;;;19.15;3.10;;;7.20;99.90;;;;;;6316618;28;20052;-86
2024/01/01 08:58:01;;;;;;;19.25;3.10;;;7.20;99.90;;;;;;6324409;28;20108;-85
2024/01/01 09:01:03;;;;;;;18.77;3.25;;;7.30;99.90;;;;;;6319457;28;20289;-86
2024/01/01 09:04:04;;;;;;;19.65;2.92;;;7.30;99.90;;;;;;6300909;28;20055;-87
2024/01/01 09:07:06;;;;;;;23.20;2.97;;;7.30;99.90;;;;;;6288846;28;20052;-85
2024/01/01 09:10:08;;;;;;;19.58;3.10;;;7.40;99.90;;;;;;6278854;28;20510;-83
2024/01/01 09:13:11;;;;;;;20.27;2.83;;;7.40;99.90;;;;;;6322038;28;20044;-84
2024/01/01 09:16:13;;;;;;;23.05;3.17;;;7.40;99.90;;;;;;6337639;28;20402;-84
2024/01/01 09:19:14;;;;;;;17.33;2.85;;;7.50;99.90;;;;;;6304823;28;20505;-83
2024/01/01 09:22:16;;;;;;;22.33;3.40;;;7.50;99.60;;;;;;6280256;28;20060;-83
2024/01/01 09:25:18;;;;;;;21.33;3.25;;;7.60;99.70;;;;;;6325374;28;20066;-81
2024/01/01 09:28:20;;;;;;;22.33;3.30;;;7.70;99.20;;;;;;6315592;28;20422;-84
2024/01/01 09:31:21;;;;;;;16.63;3.30;;;7.70;99.00;;;;;;6311366;28;20052;-82
2024/01/01 09:34:23;;;;;;;19.77;3.15;;;7.80;98.90;;;;;;6279993;28;20063;-83
2024/01/01 09:37:26;;;;;;;21.23;3.60;;;7.80;97.40;;;;;;6327613;28;20133;-85
2024/01/01 09:40:27;;;;;;;16.92;3.08;;;7.80;97.90;;;;;;6314526;28;20058;-83
2024/01/01 09:43:29;;;;;;;17.98;3.42;;;7.90;96.50;;;;;;6337541;28;20051;-85
2024/01/01 09:46:33;;;;;;;23.05;2.97;;;7.90;95.50;;;;;;6317236;28;20052;-84
2024/01/01 09:49:34;;;;;;;19.63;3.15;;;8.00;95.90;;;;;;6328726;28;20067;-83
2024/01/01 09:52:36;;;;;;;18.08;3.00;;;8.00;95.40;;;;;;6293970;28;20047;-84
2024/01/01 09:55:38;;;;;;;22.92;3.97;;;8.10;93.80;;;;;;6347167;28;20084;-84
2024/01/01 09:58:40;;;;;;;18.50;3.20;;;8.10;94.70;;;;;;6329418;28;20056;-83
2024/01/01 10:01:44;;;;;;;19.50;3.28;;;8.20;94.90;;;;;;6307468;28;20149;-84
2024/01/01 10:04:45;;;;;;;17.70;3.65;;;8.20;93.80;;;;;;6334016;28;20054;-82
2024/01/01 10:07:50;;;;;;;21.38;3.28;;;8.30;92.90;;;;;;6321229;28;20054;-83
2024/01/01 10:10:53;;;;;;;13.82;2.78;;;8.40;92.20;;;;;;6316188;28;20040;-82
2024/01/01 10:13:54;;;;;;;18.30;3.25;;;8.50;92.90;;;;;;6336785;28;20048;-83
2024/01/01 10:16:56;;;;;;;17.65;2.97;;;8.60;92.50;;;;;;6320694;28;20047;-85
2024/01/01 10:19:58;;;;;;;24.77;3.10;;;8.70;92.60;;;;;;6343190;28;20520;-84
2024/01/01 10:23:00;;;;;;;16.00;3.05;;;8.80;91.60;;;;;;6326185;28;20047;-87
2024/01/01 10:26:02;;;;;;;23.63;3.10;;;9.00;88.20;;;;;;6332379;28;20056;-84
2024/01/01 10:29:03;;;;;;;15.50;2.63;;;9.10;87.40;;;;;;6327520;28;20056;-84
2024/01/01 10:32:05;;;;;;;16.40;2.58;;;9.70;91.50;;;;;;6296743;28;20593;-85
2024/01/01 10:35:07;;;;;;;13.70;2.00;;;10.10;69.00;;;;;;6290480;28;20052;-85
2024/01/01 10:38:09;;;;;;;10.93;1.63;;;10.60;67.50;;;;;;6314571;28;20055;-85
2024/01/01 10:41:11;;;;;;;11.23;1.55;;;10.50;37.60;;;;;;6325711;28;20064;-84
2024/01/01 10:44:13;;;;;;;10.18;1.85;;;10.70;50.70;;;;;;6320238;28;20055;-87
2024/01/01 10:47:15;;;;;;;11.07;1.92;;;10.70;46.80;;;;;;6290846;28;20064;-86
2024/01/01 10:50:16;;;;;;;10.93;1.38;;;11.20;34.60;;;;;;6290444;28;20173;-84
2024/01/01 10:53:18;;;;;;;9.88;1.80;;;11.00;38.00;;;;;;6297733;28;20052;-86
2024/01/01 10:56:20;;;;;;;10.02;1.90;;;10.80;37.80;;;;;;6320946;28;20098;-88
2024/01/01 10:59:26;;;;;;;12.73;2.10;;;10.50;50.50;;;;;;6297133;28;20056;-88
2024/01/01 11:02:28;;;;;;;15.35;2.08;;;10.20;56.10;;;;;;6345640;28;20455;-87
2024/01/01 11:05:30;;;;;;;14.77;2.75;;;10.20;55.20;;;;;;6303965;28;20142;-87
2024/01/01 11:08:32;;;;;;;11.13;2.30;;;10.30;53.40;;;;;;6338197;28;20059;-85
2024/01/01 11:11:33;;;;;;;17.63;2.60;;;10.30;51.90;;;;;;6305867;28;20052;-86
2024/01/01 11:14:41;;;;;;;13.02;2.65;;;10.30;39.20;;;;;;6329529;28;20059;-87
2024/01/01 11:17:43;;;;;;;15.95;2.63;;;10.20;50.80;;;;;;6294303;28;20057;-86
2024/01/01 11:20:45;;;;;;;17.25;3.08;;;10.20;54.40;;;;;;6344383;28;20069;-87
2024/01/01 11:23:47;;;;;;;16.58;3.30;;;10.30;50.30;;;;;;6318302;28;20048;-87
2024/01/01 11:26:49;;;;;;;14.15;2.45;;;10.70;51.50;;;;;;6277738;28;20102;-88
2024/01/01 11:29:50;;;;;;;13.50;2.55;;;10.80;35.80;;;;;;6324904;28;20582;-87
2024/01/01 11:32:52;;;;;;;13.07;2.15;;;10.80;28.90;;;;;;6302724;28;20056;-87
2024/01/01 11:35:53;;;;;;;18.52;2.65;;;10.80;30.90;;;;;;6331541;28;20055;-89
2024/01/01 11:38:55;;;;;;;14.13;2.58;;;10.60;36.40;;;;;;6305666;28;20494;-86
2024/01/01 11:41:57;;;;;;;12.23;2.20;;;10.50;36.50;;;;;;6351026;28;20047;-90
2024/01/01 11:44:59;;;;;;;17.13;2.63;;;10.50;42.10;;;;;;6289205;28;20048;-90
2024/01/01 11:48:00;;;;;;;15.40;2.35;;;10.50;41.90;;;;;;6296994;28;20060;-90
2024/01/01 11:51:02;;;;;;;12.98;2.40;;;10.40;46.40;;;;;;6279452;28;20072;-90
2024/01/01 11:54:04;;;;;;;15.95;3.15;;;10.20;40.40;;;;;;6280382;28;20052;-88
2024/01/01 11:57:05;;;;;;;13.90;2.65;;;10.30;39.70;;;;;;6280492;28;20067;-88
2024/01/01 12:00:07;;;;;;;12.40;2.60;;;10.30;48.20;;;;;;6280206;28;20067;-88
2024/01/01 12:03:09;;;;;;;18.17;3.03;;;10.40;49.50;;;;;;6281521;28;20055;-89
2024/01/01 12:06:11;;;;;;;14.05;2.83;;;10.20;40.30;;;;;;6299536;28;20056;-92
2024/01/01 12:09:13;;;;;;;10.18;2.33;;;10.60;33.20;;;;;;6299739;28;20580;-90
2024/01/01 12:12:15;;;;;;;13.10;2.60;;;10.10;53.80;;;;;;6299167;28;20401;-90
2024/01/01 12:15:16;;;;;;;20.23;3.47;;;10.30;28.20;;;;;;6295419;28;20053;-85
2024/01/01 12:18:18;;;;;;;19.58;2.90;;;10.30;32.60;;;;;;6292274;28;20067;-85
2024/01/01 12:21:20;;;;;;;16.50;3.03;;;10.30;37.80;;;;;;6285335;28;20045;-86
2024/01/01 12:24:22;;;;;;;16.08;2.50;;;10.30;46.30;;;;;;6288751;28;20048;-85
2024/01/01 12:27:23;;;;;;;16.90;2.95;;;10.30;50.30;;;;;;6282684;28;20060;-85
2024/01/01 12:30:28;;;;;;;10.50;2.67;;;10.10;50.00;;;;;;6281801;28;20495;-85
2024/01/01 12:33:30;;;;;;;13.27;2.58;;;10.00;51.40;;;;;;6280602;28;20072;-88
2024/01/01 12:36:32;;;;;;;16.85;2.72;;;10.00;48.70;;;;;;6290828;28;20068;-86
2024/01/01 12:39:33;;;;;;;14.43;2.70;;;9.90;62.50;;;;;;6301323;28;20120;-85
2024/01/01 12:42:35;;;;;;;13.25;2.30;;;9.90;56.90;;;;;;6301143;28;20098;-92
2024/01/01 12:45:36;;;;;;;16.73;2.72;;;9.80;69.10;;;;;;6292957;28;20063;-90
2024/01/01 12:48:38;;;;;;;14.55;2.58;;;9.70;63.50;;;;;;6296674;28;20427;-88
2024/01/01 12:51:40;;;;;;;9.48;2.22;;;9.80;69.20;;;;;;6316051;28;20052;-90
2024/01/01 12:54:42;;;;;;;14.07;2.90;;;9.70;71.10;;;;;;6318670;28;20050;-90
2024/01/01 12:57:44;;;;;;;13.18;2.50;;;9.60;67.20;;;;;;6313662;28;20109;-93
2024/01/01 13:00:46;;;;;;;16.85;2.90;;;9.70;72.60;;;;;;6287729;28;20431;-89
2024/01/01 13:03:47;;;;;;;13.32;2.70;;;9.70;70.20;;;;;;6287920;28;20076;-88
2024/01/01 13:06:49;;;;;;;9.82;1.85;;;9.60;73.00;;;;;;6316503;28;20504;-93
2024/01/01 13:09:51;;;;;;;15.20;2.60;;;9.70;77.50;;;;;;6298712;28;20276;-90
2024/01/01 13:12:53;;;;;;;11.07;2.47;;;9.70;76.30;;;;;;6291076;28;20052;-91
2024/01/01 13:15:55;;;;;;;10.25;2.05;;;9.70;78.10;;;;;;6286865;28;20052;-87
2024/01/01 13:18:56;;;;;;;11.82;2.42;;;9.70;77.30;;;;;;6258383;28;20129;-84
2024/01/01 13:21:58;;;;;;;14.82;2.20;;;11.10;72.90;;;;;;6308959;28;20056;-88
2024/01/01 13:25:00;;;;;;;13.15;2.10;;;9.70;80.80;;;;;;6289721;28;20541;-91
2024/01/01 13:28:01;;;;;;;11.30;2.00;;;9.70;77.10;;;;;;6288202;28;20052;-90
2024/01/01 13:31:03;;;;;;;11.43;2.30;;;9.60;76.90;;;;;;6282638;28;20048;-87
2024/01/01 13:34:05;;;;;;;11.82;2.25;;;9.60;78.30;;;;;;6293217;28;20401;-86
2024/01/01 13:37:07;;;;;;;11.00;1.90;;;9.70;83.40;;;;;;6267469;28;20061;-85
2024/01/01 13:40:09;;;;;;;11.70;2.15;;;9.90;77.60;;;;;;6296514;28;20049;-85
2024/01/01 13:43:10;;;;;;;14.35;2.58;;;9.60;81.00;;;;;;6299059;22;20166;-89
2024/01/01 13:46:13;;;;;;;11.82;2.03;;;9.60;82.50;;;;;;6278392;28;20053;-84
2024/01/01 13:49:14;;;;;;;10.02;2.33;;;9.50;83.80;;;;;;6318678;28;20063;-86
2024/01/01 13:52:17;;;;;;;16.05;2.30;;;9.50;88.10;;;;;;6280096;28;20064;-87
2024/01/01 13:55:20;;;;;;;14.63;2.35;;;9.50;90.50;;;;;;6320278;28;20044;-85
2024/01/01 13:58:22;;;;;;;16.70;2.42;;;9.50;90.70;;;;;;6276143;28;20514;-83
2024/01/01 14:01:24;;;;;;;16.73;2.72;;;9.50;91.50;;;;;;6319541;28;20056;-84
2024/01/01 14:04:25;;;;;;;16.27;2.30;;;9.60;90.50;;;;;;6289964;28;20051;-84
2024/01/01 14:07:27;;;;;;;15.40;2.38;;;9.60;92.10;;;;;;6306136;28;20048;-84
2024/01/01 14:10:29;;;;;;;13.07;2.22;;;9.60;91.90;;;;;;6301966;28;20055;-89
2024/01/01 14:13:30;;;;;;;16.30;2.10;;;9.60;92.40;;;;;;6296691;28;20052;-86
2024/01/01 14:16:32;;;;;;;13.35;2.42;;;9.60;93.70;;;;;;6282130;28;20052;-89
2024/01/01 14:19:34;;;;;;;12.68;2.20;;;9.60;92.90;;;;;;6298073;28;20044;-91
2024/01/01 14:22:35;;;;;;;17.35;2.47;;;9.50;93.00;;;;;;6332551;28;20044;-93
2024/01/01 14:25:38;;;;;;;10.90;2.08;;;9.50;93.70;;;;;;6307530;28;20090;-91
2024/01/01 14:28:40;;;;;;;23.58;2.70;;;9.50;93.50;;;;;;6305400;28;20467;-83
2024/01/01 14:31:41;;;;;;;15.95;2.22;;;9.40;94.70;;;;;;6320870;28;20137;-84
2024/01/01 14:34:43;;;;;;;15.75;2.00;;;9.50;95.30;;;;;;6324454;28;20062;-93
2024/01/01 14:37:45;;;;;;;15.52;2.58;;;9.40;95.70;;;;;;6346763;28;20066;-94
2024/01/01 14:40:46;;;;;;;19.35;2.85;;;9.50;97.50;;;;;;6313028;28;20062;-89
2024/01/01 14:43:48;;;;;;;20.35;2.72;;;9.40;97.20;;;;;;6304570;28;20058;-89
2024/01/01 14:46:50;;;;;;;16.45;2.70;;;9.40;98.60;;;;;;6296838;28;20119;-89
2024/01/01 14:49:52;;;;;;;16.58;2.65;;;9.40;99.90;;;;;;6321321;28;20138;-87
2024/01/01 14:52:55;;;;;;;16.35;2.63;;;9.30;99.90;;;;;;6279979;28;20126;-90
2024/01/01 14:55:57;;;;;;;12.05;2.60;;;9.30;99.90;;;;;;6295238;28;20571;-90
2024/01/01 14:58:58;;;;;;;17.45;2.85;;;9.30;99.90;;;;;;6305945;28;20162;-89
2024/01/01 15:02:00;;;;;;;16.95;3.10;;;9.30;99.90;;;;;;6279857;28;20079;-88
2024/01/01 15:05:03;;;;;;;14.43;3.20;;;9.30;99.90;;;;;;6304526;28;20063;-88
2024/01/01 15:08:08;;;;;;;16.27;3.00;;;9.30;99.90;;;;;;6300636;28;20803;-90
2024/01/01 15:11:10;;;;;;;15.10;2.90;;;9.30;99.90;;;;;;6297225;28;20388;-90
2024/01/01 15:14:11;;;;;;;17.92;3.90;;;9.30;99.90;;;;;;6306308;28;20044;-87
2024/01/01 15:17:13;;;;;;;22.02;4.95;;;9.30;99.90;;;;;;6301761;28;20056;-85
2024/01/01 15:20:15;;;;;;;23.35;4.80;;;9.20;99.90;;;;;;6313168;28;20487;-88
2024/01/01 15:23:18;;;;;;;15.68;3.65;;;9.20;99.90;;;;;;6298226;28;20431;-87
2024/01/01 15:26:20;;;;;;;15.45;2.90;;;9.10;99.90;;;;;;6305927;28;20075;-91
2024/01/01 15:29:22;;;;;;;13.80;2.55;;;9.10;99.90;;;;;;6311135;28;20058;-88
2024/01/01 15:32:24;;;;;;;16.40;2.63;;;9.00;99.90;;;;;;6309489;28;20052;-85
2024/01/01 15:35:26;;;;;;;21.80;2.75;;;9.00;99.90;;;;;;6290350;28;20060;-85
2024/01/01 15:38:27;;;;;;;19.40;3.10;;;9.00;99.90;;;;;;6333157;28;20058;-88
2024/01/01 15:41:29;;;;;;;18.52;2.75;;;8.90;99.90;;;;;;6315600;28;20060;-91
2024/01/01 15:44:31;;;;;;;16.70;3.00;;;8.90;99.90;;;;;;6312930;28;20155;-90